LOS ANGELES INTL

KLAX (LAX)
Los Angeles, California
Towered

Vatsim Metar:
KLAX 190953Z 24004KT 10SM BKN011 19/16 A2992 RMK AO2 SLP130 T01890156 $

No ATC Online

Traffic

Inbound:
Ident
Type
Name
ETA
Phase
KLM06N
H/B744/L
Randy Storm EHAM
10:19 Z
Descent
ASA3688
B738/L
Alexey Surkov UUEE
10:40 Z
Cruse
QFA12
H/B789/L
Alexander Fairlie YSSY
11:16 Z
Cruse
CAN1827
B763/L
1336779
13:08 Z
Cruse
DAL833
H/B744/L
Norado Rhoden KJFK
14:49 Z
Cruse
SOO98
H/B77L/L
Enrico Noia LIML
20:09 Z
Cruse

Outbound:
Ident
Type
Name
Destination
Phase